CheckWX is a tool to help pilots better visualize weather data.  It is not intended as a substitute for an official pre-flight weather briefing.

17:24:28 UTC

KTRI METAR
Tri-Cities Airport
Bristol/Johnson/Kingsport, Tennessee, USA
Current

16 mins ago

KTRI 201708Z 00000KT 1/2SM SN FG SCT006 OVC015 01/M01 A3037 RMK AO2 P0001 T00061006
Observed
Feb-20 @ 17:08 UTC
Visibility
1/2 SM
Flight Rules
LIFR
Conditions
Snow, Fog
Cloud Levels
  • Scattered at 600' AGL
  • Overcast at 1,500' AGL
Temperature
C / 34°F
Dewpoint
-1°C / 30°F
Humidity
87%
Altimeter
30.37" Hg
Pressure
1028.42 hPa
Current Rain
0.01"
Previous

31 mins ago

KTRI 201653Z 00000KT 1/2SM SN FG SCT005 BKN010 OVC017 01/M01 A3038 RMK AO2 SLP287 SNINCR 1/1 P0006 T00061006
Observed
Feb-20 @ 16:53 UTC
Visibility
1/2 SM
Flight Rules
LIFR
Conditions
Snow, Fog
Cloud Levels
  • Scattered at 500' AGL
  • Broken at 1,000' AGL
  • Overcast at 1,700' AGL
Temperature
C / 34°F
Dewpoint
-1°C / 30°F
Humidity
87%
Altimeter
30.38" Hg
Pressure
1028.82 hPa
Current Rain
0.06"
Snow Depth
1"
Previous

43 mins ago

KTRI 201641Z 00000KT 1/4SM SN FG VV007 01/M01 A3038 RMK AO2 P0005 T00061006
Observed
Feb-20 @ 16:41 UTC
Visibility
1/4 SM
Flight Rules
LIFR
Conditions
Snow, Fog
Cloud Levels
  • Vertical visibility at 700' AGL
Temperature
C / 34°F
Dewpoint
-1°C / 30°F
Humidity
87%
Altimeter
30.38" Hg
Pressure
1028.82 hPa
Current Rain
0.05"